sensor_id;sensor_type;location;lat;lon;timestamp;pressure;altitude;pressure_sealevel;temperature;humidity
77517;BME280;68414;53.946;27.634;2023-05-07T00:00:00;100114.031250;;;4.020000;45.369141
77517;BME280;68414;53.946;27.634;2023-05-07T00:01:00;100121.148438;;;3.980000;45.955078
77517;BME280;68414;53.946;27.634;2023-05-07T00:02:00;100114.343750;;;3.960000;44.673828
77517;BME280;68414;53.946;27.634;2023-05-07T00:03:00;100124.953125;;;3.970000;44.277344
77517;BME280;68414;53.946;27.634;2023-05-07T00:04:00;100122.468750;;;4.010000;44.571289
77517;BME280;68414;53.946;27.634;2023-05-07T00:05:01;100118.953125;;;4.000000;44.034180
77517;BME280;68414;53.946;27.634;2023-05-07T00:06:00;100123.031250;;;4.030000;44.132812
77517;BME280;68414;53.946;27.634;2023-05-07T00:07:01;100113.226562;;;3.970000;44.265625
77517;BME280;68414;53.946;27.634;2023-05-07T00:08:00;100111.609375;;;3.960000;44.512695
77517;BME280;68414;53.946;27.634;2023-05-07T00:09:00;100117.890625;;;3.960000;44.771484
77517;BME280;68414;53.946;27.634;2023-05-07T00:10:00;100120.562500;;;4.010000;45.023438
77517;BME280;68414;53.946;27.634;2023-05-07T00:11:00;100123.351562;;;3.910000;44.271484
77517;BME280;68414;53.946;27.634;2023-05-07T00:12:00;100123.351562;;;3.910000;44.625977
77517;BME280;68414;53.946;27.634;2023-05-07T00:13:00;100115.687500;;;3.980000;44.794922
77517;BME280;68414;53.946;27.634;2023-05-07T00:14:00;100119.195312;;;4.040000;44.767578
77517;BME280;68414;53.946;27.634;2023-05-07T00:15:01;100122.226562;;;3.970000;44.803711
77517;BME280;68414;53.946;27.634;2023-05-07T00:16:05;100129.585938;;;3.970000;44.523438
77517;BME280;68414;53.946;27.634;2023-05-07T00:17:00;100118.132812;;;4.000000;44.613281
77517;BME280;68414;53.946;27.634;2023-05-07T00:18:01;100119.500000;;;3.970000;44.599609
77517;BME280;68414;53.946;27.634;2023-05-07T00:19:00;100118.953125;;;4.000000;44.937500
77517;BME280;68414;53.946;27.634;2023-05-07T00:20:00;100121.390625;;;4.020000;44.722656
77517;BME280;68414;53.946;27.634;2023-05-07T00:21:00;100120.562500;;;4.010000;44.571289
77517;BME280;68414;53.946;27.634;2023-05-07T00:22:00;100122.453125;;;4.060000;44.996094
77517;BME280;68414;53.946;27.634;2023-05-07T00:23:00;100117.578125;;;4.030000;44.358398
77517;BME280;68414;53.946;27.634;2023-05-07T00:24:00;100129.281250;;;4.030000;44.369141
77517;BME280;68414;53.946;27.634;2023-05-07T00:25:00;100123.523438;;;4.100000;44.634766
77517;BME280;68414;53.946;27.634;2023-05-07T00:26:00;100124.343750;;;4.100000;44.291016
77517;BME280;68414;53.946;27.634;2023-05-07T00:27:00;100123.570312;;;4.050000;44.328125
77517;BME280;68414;53.946;27.634;2023-05-07T00:28:00;100120.562500;;;4.010000;44.399414
77517;BME280;68414;53.946;27.634;2023-05-07T00:29:00;100123.031250;;;4.030000;44.562500
77517;BME280;68414;53.946;27.634;2023-05-07T00:30:00;100128.445312;;;4.080000;44.739258
77517;BME280;68414;53.946;27.634;2023-05-07T00:31:00;100122.765625;;;3.990000;44.408203
77517;BME280;68414;53.946;27.634;2023-05-07T00:32:00;100124.953125;;;3.970000;44.277344
77517;BME280;68414;53.946;27.634;2023-05-07T00:33:00;100126.015625;;;4.010000;44.539062
77517;BME280;68414;53.946;27.634;2023-05-07T00:34:00;100126.601562;;;3.980000;44.364258
77517;BME280;68414;53.946;27.634;2023-05-07T00:35:00;100126.062500;;;3.960000;44.684570
77517;BME280;68414;53.946;27.634;2023-05-07T00:36:00;100122.812500;;;3.940000;44.650391
77517;BME280;68414;53.946;27.634;2023-05-07T00:37:01;100117.906250;;;3.910000;44.583008
77517;BME280;68414;53.946;27.634;2023-05-07T00:38:00;100129.093750;;;3.900000;44.829102
77517;BME280;68414;53.946;27.634;2023-05-07T00:39:00;100118.984375;;;3.900000;44.905273
77517;BME280;68414;53.946;27.634;2023-05-07T00:40:00;100122.281250;;;3.870000;44.545898
77517;BME280;68414;53.946;27.634;2023-05-07T00:41:00;100125.546875;;;3.890000;44.785156
77517;BME280;68414;53.946;27.634;2023-05-07T00:42:00;100129.109375;;;3.840000;45.220703
77517;BME280;68414;53.946;27.634;2023-05-07T00:43:00;100127.453125;;;3.890000;45.021484
77517;BME280;68414;53.946;27.634;2023-05-07T00:44:00;100126.367188;;;3.900000;45.538086
77517;BME280;68414;53.946;27.634;2023-05-07T00:45:00;100134.492188;;;4.000000;45.280273
77517;BME280;68414;53.946;27.634;2023-05-07T00:46:00;100127.984375;;;3.910000;44.270508
77517;BME280;68414;53.946;27.634;2023-05-07T00:47:01;100125.546875;;;3.890000;44.354492
77517;BME280;68414;53.946;27.634;2023-05-07T00:48:00;100126.367188;;;3.900000;44.625000
77517;BME280;68414;53.946;27.634;2023-05-07T00:49:00;100127.984375;;;3.910000;44.291992
77517;BME280;68414;53.946;27.634;2023-05-07T00:50:00;100128.820312;;;3.860000;43.943359
77517;BME280;68414;53.946;27.634;2023-05-07T00:51:00;100129.937500;;;3.800000;44.355469
77517;BME280;68414;53.946;27.634;2023-05-07T00:52:00;100124.734375;;;3.830000;44.457031
77517;BME280;68414;53.946;27.634;2023-05-07T00:53:00;100127.500000;;;3.780000;44.386719
77517;BME280;68414;53.946;27.634;2023-05-07T00:54:01;100132.132812;;;3.780000;44.547852
77517;BME280;68414;53.946;27.634;2023-05-07T00:55:05;100133.781250;;;3.740000;44.479492
77517;BME280;68414;53.946;27.634;2023-05-07T00:56:00;100126.156250;;;3.710000;44.444336
77517;BME280;68414;53.946;27.634;2023-05-07T00:57:01;100134.906250;;;3.680000;44.687500
77517;BME280;68414;53.946;27.634;2023-05-07T00:58:00;100129.468750;;;3.580000;44.505859
77517;BME280;68414;53.946;27.634;2023-05-07T00:59:05;100131.375000;;;3.570000;44.741211
77517;BME280;68414;53.946;27.634;2023-05-07T01:00:00;100130.585938;;;3.520000;44.917969
77517;BME280;68414;53.946;27.634;2023-05-07T01:01:00;100130.875000;;;3.500000;45.227539
77517;BME280;68414;53.946;27.634;2023-05-07T01:02:00;100127.859375;;;3.570000;45.341797
77517;BME280;68414;53.946;27.634;2023-05-07T01:03:00;100135.156250;;;3.660000;45.856445
77517;BME280;68414;53.946;27.634;2023-05-07T01:04:00;100129.171875;;;3.640000;45.005859
77517;BME280;68414;53.946;27.634;2023-05-07T01:05:00;100129.750000;;;3.560000;45.018555
77517;BME280;68414;53.946;27.634;2023-05-07T01:06:00;100128.109375;;;3.600000;45.012695
77517;BME280;68414;53.946;27.634;2023-05-07T01:07:00;100131.656250;;;3.610000;45.227539
77517;BME280;68414;53.946;27.634;2023-05-07T01:08:01;100129.468750;;;3.630000;45.111328
77517;BME280;68414;53.946;27.634;2023-05-07T01:09:00;100131.656250;;;3.610000;44.831055
77517;BME280;68414;53.946;27.634;2023-05-07T01:10:00;100133.843750;;;3.590000;44.925781
77517;BME280;68414;53.946;27.634;2023-05-07T01:11:00;100128.390625;;;3.540000;44.780273
77517;BME280;68414;53.946;27.634;2023-05-07T01:12:00;100132.234375;;;3.530000;44.619141
77517;BME280;68414;53.946;27.634;2023-05-07T01:13:00;100134.953125;;;3.530000;44.748047
77517;BME280;68414;53.946;27.634;2023-05-07T01:14:00;100133.593750;;;3.500000;45.066406
77517;BME280;68414;53.946;27.634;2023-05-07T01:15:00;100132.234375;;;3.530000;45.219727
77517;BME280;68414;53.946;27.634;2023-05-07T01:16:00;100127.859375;;;3.520000;44.874023
77517;BME280;68414;53.946;27.634;2023-05-07T01:17:00;100131.953125;;;3.490000;44.861328
77517;BME280;68414;53.946;27.634;2023-05-07T01:18:00;100132.515625;;;3.460000;44.879883
77517;BME280;68414;53.946;27.634;2023-05-07T01:19:00;100145.031250;;;3.470000;45.556641
77517;BME280;68414;53.946;27.634;2023-05-07T01:20:00;100143.421875;;;3.460000;45.008789
77517;BME280;68414;53.946;27.634;2023-05-07T01:21:00;100141.234375;;;3.430000;45.026367
77517;BME280;68414;53.946;27.634;2023-05-07T01:23:00;100140.984375;;;3.400000;45.624023
77517;BME280;68414;53.946;27.634;2023-05-07T01:24:00;100137.718750;;;3.380000;45.299805
77517;BME280;68414;53.946;27.634;2023-05-07T01:25:00;100143.671875;;;3.450000;45.135742
77517;BME280;68414;53.946;27.634;2023-05-07T01:26:00;100142.593750;;;3.410000;45.228516
77517;BME280;68414;53.946;27.634;2023-05-07T01:27:00;100137.437500;;;3.390000;45.452148
77517;BME280;68414;53.946;27.634;2023-05-07T01:28:00;100144.242188;;;3.370000;45.321289
77517;BME280;68414;53.946;27.634;2023-05-07T01:29:00;100138.257812;;;3.400000;45.387695
77517;BME280;68414;53.946;27.634;2023-05-07T01:30:00;100141.234375;;;3.430000;46.078125
77517;BME280;68414;53.946;27.634;2023-05-07T01:31:01;100139.328125;;;3.440000;46.293945
77517;BME280;68414;53.946;27.634;2023-05-07T01:32:00;100137.148438;;;3.410000;45.668945
77517;BME280;68414;53.946;27.634;2023-05-07T01:33:02;100140.953125;;;3.450000;45.919922
77517;BME280;68414;53.946;27.634;2023-05-07T01:34:00;100140.156250;;;3.440000;45.478516
77517;BME280;68414;53.946;27.634;2023-05-07T01:35:01;100133.343750;;;3.420000;45.905273
77517;BME280;68414;53.946;27.634;2023-05-07T01:36:00;100134.460938;;;3.310000;46.182617
77517;BME280;68414;53.946;27.634;2023-05-07T01:37:00;100143.171875;;;3.330000;46.829102
77517;BME280;68414;53.946;27.634;2023-05-07T01:38:00;100133.351562;;;3.320000;46.581055
77517;BME280;68414;53.946;27.634;2023-05-07T01:39:00;100139.906250;;;3.310000;46.182617
77517;BME280;68414;53.946;27.634;2023-05-07T01:40:01;100135.531250;;;3.350000;46.058594
77517;BME280;68414;53.946;27.634;2023-05-07T01:41:01;100133.351562;;;3.320000;46.484375
77517;BME280;68414;53.946;27.634;2023-05-07T01:42:00;100131.195312;;;3.290000;46.234375
77517;BME280;68414;53.946;27.634;2023-05-07T01:43:01;100134.171875;;;3.320000;46.496094
77517;BME280;68414;53.946;27.634;2023-05-07T01:44:00;100139.367188;;;3.290000;46.244141
77517;BME280;68414;53.946;27.634;2023-05-07T01:45:00;100129.578125;;;3.230000;46.539062
77517;BME280;68414;53.946;27.634;2023-05-07T01:46:01;100132.296875;;;3.230000;46.399414
77517;BME280;68414;53.946;27.634;2023-05-07T01:47:01;100141.546875;;;3.270000;47.057617
77517;BME280;68414;53.946;27.634;2023-05-07T01:48:01;100127.937500;;;3.270000;46.510742
77517;BME280;68414;53.946;27.634;2023-05-07T01:49:00;100135.031250;;;3.230000;46.699219
77517;BME280;68414;53.946;27.634;2023-05-07T01:50:00;100136.390625;;;3.200000;46.569336
77517;BME280;68414;53.946;27.634;2023-05-07T01:51:00;100127.937500;;;3.220000;46.805664
77517;BME280;68414;53.946;27.634;2023-05-07T01:52:00;100132.296875;;;3.180000;46.640625
77517;BME280;68414;53.946;27.634;2023-05-07T01:53:00;100126.859375;;;3.180000;46.887695
77517;BME280;68414;53.946;27.634;2023-05-07T01:54:00;100128.468750;;;3.190000;46.749023
77517;BME280;68414;53.946;27.634;2023-05-07T01:55:00;100125.773438;;;3.080000;46.802734
77517;BME280;68414;53.946;27.634;2023-05-07T01:56:00;100127.671875;;;3.080000;46.929688
77517;BME280;68414;53.946;27.634;2023-05-07T01:57:00;100127.671875;;;3.080000;46.951172
77517;BME280;68414;53.946;27.634;2023-05-07T01:58:00;100121.406250;;;3.070000;46.994141
77517;BME280;68414;53.946;27.634;2023-05-07T01:59:00;100132.031250;;;3.040000;47.076172
77517;BME280;68414;53.946;27.634;2023-05-07T02:00:00;100124.976562;;;3.030000;46.795898
77517;BME280;68414;53.946;27.634;2023-05-07T02:01:00;100131.218750;;;3.030000;46.968750
77517;BME280;68414;53.946;27.634;2023-05-07T02:02:01;100130.968750;;;3.050000;47.023438
77517;BME280;68414;53.946;27.634;2023-05-07T02:03:00;100127.156250;;;3.010000;48.090820
77517;BME280;68414;53.946;27.634;2023-05-07T02:04:00;100125.796875;;;2.980000;47.412109
77517;BME280;68414;53.946;27.634;2023-05-07T02:05:00;100126.054688;;;3.020000;47.492188
77517;BME280;68414;53.946;27.634;2023-05-07T02:06:00;100121.968750;;;3.040000;47.172852
77517;BME280;68414;53.946;27.634;2023-05-07T02:07:00;100125.765625;;;3.030000;48.072266
77517;BME280;68414;53.946;27.634;2023-05-07T02:08:00;100132.031250;;;3.040000;48.233398
77517;BME280;68414;53.946;27.634;2023-05-07T02:09:00;100125.765625;;;3.030000;47.718750
77517;BME280;68414;53.946;27.634;2023-05-07T02:10:00;100125.226562;;;3.010000;48.573242
77517;BME280;68414;53.946;27.634;2023-05-07T02:11:00;100130.414062;;;2.980000;47.507812
77517;BME280;68414;53.946;27.634;2023-05-07T02:12:00;100129.062500;;;3.000000;47.650391
77517;BME280;68414;53.946;27.634;2023-05-07T02:13:01;100126.875000;;;2.970000;47.347656
77517;BME280;68414;53.946;27.634;2023-05-07T02:14:00;100124.703125;;;2.890000;47.584961
77517;BME280;68414;53.946;27.634;2023-05-07T02:15:00;100131.234375;;;2.930000;47.943359
77517;BME280;68414;53.946;27.634;2023-05-07T02:16:00;100127.421875;;;2.840000;47.943359
77517;BME280;68414;53.946;27.634;2023-05-07T02:17:00;100134.515625;;;2.850000;47.880859
77517;BME280;68414;53.946;27.634;2023-05-07T02:18:04;100133.140625;;;2.830000;48.059570
77517;BME280;68414;53.946;27.634;2023-05-07T02:19:00;100130.703125;;;2.810000;48.089844
77517;BME280;68414;53.946;27.634;2023-05-07T02:20:00;100130.164062;;;2.790000;48.193359
77517;BME280;68414;53.946;27.634;2023-05-07T02:21:00;100131.515625;;;2.770000;48.202148
77517;BME280;68414;53.946;27.634;2023-05-07T02:22:00;100129.046875;;;2.750000;48.189453
77517;BME280;68414;53.946;27.634;2023-05-07T02:23:00;100128.250000;;;2.750000;48.318359
77517;BME280;68414;53.946;27.634;2023-05-07T02:24:00;100136.398438;;;2.800000;48.387695
77517;BME280;68414;53.946;27.634;2023-05-07T02:25:00;100138.312500;;;2.740000;48.199219
77517;BME280;68414;53.946;27.634;2023-05-07T02:26:00;100131.515625;;;2.770000;48.234375
77517;BME280;68414;53.946;27.634;2023-05-07T02:27:00;100136.398438;;;2.800000;48.441406
77517;BME280;68414;53.946;27.634;2023-05-07T02:28:00;100138.328125;;;2.790000;48.557617
77517;BME280;68414;53.946;27.634;2023-05-07T02:29:00;100130.164062;;;2.790000;49.275391
77517;BME280;68414;53.946;27.634;2023-05-07T02:30:00;100130.437500;;;2.730000;48.851562
77517;BME280;68414;53.946;27.634;2023-05-07T02:31:02;100132.312500;;;2.770000;48.919922
77517;BME280;68414;53.946;27.634;2023-05-07T02:32:00;100129.609375;;;2.720000;48.689453
77517;BME280;68414;53.946;27.634;2023-05-07T02:33:00;100123.898438;;;2.790000;49.200195
77517;BME280;68414;53.946;27.634;2023-05-07T02:34:00;100130.164062;;;2.790000;49.585938
77517;BME280;68414;53.946;27.634;2023-05-07T02:35:00;100132.062500;;;2.790000;48.835938
77517;BME280;68414;53.946;27.634;2023-05-07T02:37:00;100135.875000;;;2.730000;49.097656
77517;BME280;68414;53.946;27.634;2023-05-07T02:38:00;100128.781250;;;2.720000;49.170898
77517;BME280;68414;53.946;27.634;2023-05-07T02:39:00;100132.601562;;;2.660000;49.249023
77517;BME280;68414;53.946;27.634;2023-05-07T02:40:00;100133.671875;;;2.650000;49.312500
77517;BME280;68414;53.946;27.634;2023-05-07T02:41:00;100132.867188;;;2.590000;49.284180
77517;BME280;68414;53.946;27.634;2023-05-07T02:42:00;100128.234375;;;2.550000;49.536133
77517;BME280;68414;53.946;27.634;2023-05-07T02:43:00;100133.398438;;;2.560000;49.452148
77517;BME280;68414;53.946;27.634;2023-05-07T02:44:00;100131.765625;;;2.500000;49.745117
77517;BME280;68414;53.946;27.634;2023-05-07T02:45:00;100131.218750;;;2.480000;49.924805
77517;BME280;68414;53.946;27.634;2023-05-07T02:47:00;100129.046875;;;2.400000;50.150391
77517;BME280;68414;53.946;27.634;2023-05-07T02:48:00;100137.750000;;;2.420000;50.184570
77517;BME280;68414;53.946;27.634;2023-05-07T02:49:00;100134.750000;;;2.440000;50.187500
77517;BME280;68414;53.946;27.634;2023-05-07T02:50:00;100129.031250;;;2.450000;50.145508
77517;BME280;68414;53.946;27.634;2023-05-07T02:51:01;100130.937500;;;2.400000;50.374023
77517;BME280;68414;53.946;27.634;2023-05-07T02:52:00;100131.750000;;;2.450000;50.541016
77517;BME280;68414;53.946;27.634;2023-05-07T02:53:00;100132.031250;;;2.440000;50.358398
77517;BME280;68414;53.946;27.634;2023-05-07T02:54:00;100135.296875;;;2.460000;50.466797
77517;BME280;68414;53.946;27.634;2023-05-07T02:55:00;100137.484375;;;2.490000;50.620117
77517;BME280;68414;53.946;27.634;2023-05-07T02:56:00;100133.101562;;;2.430000;50.655273
77517;BME280;68414;53.946;27.634;2023-05-07T02:57:00;100136.640625;;;2.430000;50.837891
77517;BME280;68414;53.946;27.634;2023-05-07T02:58:00;100138.539062;;;2.430000;50.655273
77517;BME280;68414;53.946;27.634;2023-05-07T02:59:00;100135.289062;;;2.360000;50.829102
77517;BME280;68414;53.946;27.634;2023-05-07T03:00:06;100135.554688;;;2.390000;50.662109
77517;BME280;68414;53.946;27.634;2023-05-07T03:01:00;100140.968750;;;2.340000;50.860352
77517;BME280;68414;53.946;27.634;2023-05-07T03:02:00;100144.812500;;;2.380000;50.950195
77517;BME280;68414;53.946;27.634;2023-05-07T03:03:00;100140.718750;;;2.410000;51.080078
77517;BME280;68414;53.946;27.634;2023-05-07T03:04:00;100142.343750;;;2.370000;51.011719
77517;BME280;68414;53.946;27.634;2023-05-07T03:05:00;100141.515625;;;2.360000;51.097656
77517;BME280;68414;53.946;27.634;2023-05-07T03:06:00;100134.187500;;;2.370000;51.086914
77517;BME280;68414;53.946;27.634;2023-05-07T03:07:00;100144.515625;;;2.350000;51.137695
77517;BME280;68414;53.946;27.634;2023-05-07T03:08:00;100132.828125;;;2.290000;51.184570
77517;BME280;68414;53.946;27.634;2023-05-07T03:09:00;100140.453125;;;2.370000;51.086914
77517;BME280;68414;53.946;27.634;2023-05-07T03:10:00;100139.921875;;;2.400000;51.027344
77517;BME280;68414;53.946;27.634;2023-05-07T03:11:00;100141.812500;;;2.400000;50.897461
77517;BME280;68414;53.946;27.634;2023-05-07T03:12:00;100141.000000;;;2.390000;51.015625
77517;BME280;68414;53.946;27.634;2023-05-07T03:13:00;100140.453125;;;2.370000;50.905273
77517;BME280;68414;53.946;27.634;2023-05-07T03:14:01;100142.890625;;;2.390000;50.982422
77517;BME280;68414;53.946;27.634;2023-05-07T03:15:00;100145.078125;;;2.420000;51.220703
77517;BME280;68414;53.946;27.634;2023-05-07T03:16:00;100145.343750;;;2.350000;50.945312
77517;BME280;68414;53.946;27.634;2023-05-07T03:17:00;100145.609375;;;2.390000;51.495117
77517;BME280;68414;53.946;27.634;2023-05-07T03:18:00;100147.523438;;;2.430000;51.661133
77517;BME280;68414;53.946;27.634;2023-05-07T03:19:00;100150.000000;;;2.450000;50.999023
77517;BME280;68414;53.946;27.634;2023-05-07T03:20:00;100150.000000;;;2.450000;51.084961
77517;BME280;68414;53.946;27.634;2023-05-07T03:21:02;100148.609375;;;2.470000;51.120117
77517;BME280;68414;53.946;27.634;2023-05-07T03:22:00;100142.625000;;;2.450000;51.075195
77517;BME280;68414;53.946;27.634;2023-05-07T03:23:00;100144.820312;;;2.480000;50.919922
77517;BME280;68414;53.946;27.634;2023-05-07T03:24:00;100144.296875;;;2.510000;51.017578
77517;BME280;68414;53.946;27.634;2023-05-07T03:25:00;100149.734375;;;2.510000;50.889648
77517;BME280;68414;53.946;27.634;2023-05-07T03:26:01;100150.828125;;;2.550000;50.809570
77517;BME280;68414;53.946;27.634;2023-05-07T03:27:00;100155.171875;;;2.510000;51.423828
77517;BME280;68414;53.946;27.634;2023-05-07T03:28:00;100152.453125;;;2.510000;51.049805
77517;BME280;68414;53.946;27.634;2023-05-07T03:29:00;100150.265625;;;2.480000;51.080078
77517;BME280;68414;53.946;27.634;2023-05-07T03:30:00;100152.437500;;;2.460000;50.798828
77517;BME280;68414;53.946;27.634;2023-05-07T03:31:00;100161.406250;;;2.520000;50.890625
77517;BME280;68414;53.946;27.634;2023-05-07T03:32:00;100155.718750;;;2.530000;50.946289
77517;BME280;68414;53.946;27.634;2023-05-07T03:33:00;100159.515625;;;2.620000;50.786133
77517;BME280;68414;53.946;27.634;2023-05-07T03:34:00;100160.078125;;;2.590000;50.514648
77517;BME280;68414;53.946;27.634;2023-05-07T03:35:00;100157.093750;;;2.660000;50.500977
77517;BME280;68414;53.946;27.634;2023-05-07T03:36:00;100159.250000;;;2.690000;50.291016
77517;BME280;68414;53.946;27.634;2023-05-07T03:37:00;100157.367188;;;2.740000;50.457031
77517;BME280;68414;53.946;27.634;2023-05-07T03:38:00;100156.804688;;;2.770000;50.085938
77517;BME280;68414;53.946;27.634;2023-05-07T03:39:00;100171.531250;;;2.810000;50.113281
77517;BME280;68414;53.946;27.634;2023-05-07T03:40:00;100169.343750;;;2.930000;50.137695
77517;BME280;68414;53.946;27.634;2023-05-07T03:41:00;100169.890625;;;3.000000;49.953125
77517;BME280;68414;53.946;27.634;2023-05-07T03:42:00;100170.414062;;;3.070000;49.865234
77517;BME280;68414;53.946;27.634;2023-05-07T03:43:00;100170.421875;;;3.180000;49.919922
77517;BME280;68414;53.946;27.634;2023-05-07T03:44:00;100170.421875;;;3.180000;49.823242
77517;BME280;68414;53.946;27.634;2023-05-07T03:45:00;100171.789062;;;3.200000;49.258789
77517;BME280;68414;53.946;27.634;2023-05-07T03:46:00;100166.593750;;;3.240000;49.336914
77517;BME280;68414;53.946;27.634;2023-05-07T03:47:00;100169.046875;;;3.300000;49.012695
77517;BME280;68414;53.946;27.634;2023-05-07T03:48:00;100171.203125;;;3.430000;49.477539
77517;BME280;68414;53.946;27.634;2023-05-07T03:49:00;100167.109375;;;3.460000;48.387695
77517;BME280;68414;53.946;27.634;2023-05-07T03:50:00;100168.734375;;;3.470000;48.613281
77517;BME280;68414;53.946;27.634;2023-05-07T03:51:00;100182.921875;;;3.390000;48.519531
77517;BME280;68414;53.946;27.634;2023-05-07T03:52:00;100177.187500;;;3.450000;48.494141
77517;BME280;68414;53.946;27.634;2023-05-07T03:53:00;100179.625000;;;3.470000;48.560547
77517;BME280;68414;53.946;27.634;2023-05-07T03:54:00;100189.453125;;;3.530000;48.267578
77517;BME280;68414;53.946;27.634;2023-05-07T03:55:00;100181.531250;;;3.560000;47.980469
77517;BME280;68414;53.946;27.634;2023-05-07T03:56:00;100191.601562;;;3.610000;47.964844
77517;BME280;68414;53.946;27.634;2023-05-07T03:57:00;100190.734375;;;3.800000;47.954102
77517;BME280;68414;53.946;27.634;2023-05-07T03:58:00;100183.859375;;;3.980000;47.759766
77517;BME280;68414;53.946;27.634;2023-05-07T03:59:00;100190.906250;;;4.090000;47.180664
77517;BME280;68414;53.946;27.634;2023-05-07T04:00:00;100187.882812;;;4.160000;46.866211
77517;BME280;68414;53.946;27.634;2023-05-07T04:01:00;100182.593750;;;4.340000;46.423828
77517;BME280;68414;53.946;27.634;2023-05-07T04:02:00;100185.031250;;;4.360000;45.758789
77517;BME280;68414;53.946;27.634;2023-05-07T04:03:00;100188.515625;;;4.460000;45.920898
77517;BME280;68414;53.946;27.634;2023-05-07T04:04:00;100179.148438;;;4.630000;45.905273
77517;BME280;68414;53.946;27.634;2023-05-07T04:05:00;100179.546875;;;4.850000;45.703125
77517;BME280;68414;53.946;27.634;2023-05-07T04:06:00;100187.234375;;;5.110000;44.384766
77517;BME280;68414;53.946;27.634;2023-05-07T04:07:00;100189.570312;;;5.280000;43.614258
77517;BME280;68414;53.946;27.634;2023-05-07T04:08:02;100187.367188;;;5.300000;43.314453
77517;BME280;68414;53.946;27.634;2023-05-07T04:09:00;100193.921875;;;5.290000;42.795898
77517;BME280;68414;53.946;27.634;2023-05-07T04:10:00;100182.265625;;;5.180000;43.659180
77517;BME280;68414;53.946;27.634;2023-05-07T04:11:02;100191.054688;;;5.150000;43.117188
77517;BME280;68414;53.946;27.634;2023-05-07T04:12:00;100188.679688;;;5.040000;43.384766
77517;BME280;68414;53.946;27.634;2023-05-07T04:13:00;100183.953125;;;4.810000;43.868164
77517;BME280;68414;53.946;27.634;2023-05-07T04:14:00;100186.593750;;;4.910000;43.933594
77517;BME280;68414;53.946;27.634;2023-05-07T04:15:00;100186.828125;;;4.940000;44.054688
77517;BME280;68414;53.946;27.634;2023-05-07T04:16:03;100200.015625;;;4.870000;43.863281
77517;BME280;68414;53.946;27.634;2023-05-07T04:17:00;100178.015625;;;4.690000;44.135742
77517;BME280;68414;53.946;27.634;2023-05-07T04:18:00;100188.828125;;;4.840000;43.656250
77517;BME280;68414;53.946;27.634;2023-05-07T04:19:00;100198.078125;;;4.880000;43.929688
77517;BME280;68414;53.946;27.634;2023-05-07T04:20:00;100190.156250;;;4.910000;44.191406
77517;BME280;68414;53.946;27.634;2023-05-07T04:21:00;100192.085938;;;4.860000;44.240234
77517;BME280;68414;53.946;27.634;2023-05-07T04:22:00;100192.062500;;;4.910000;44.234375
77517;BME280;68414;53.946;27.634;2023-05-07T04:23:00;100193.437500;;;4.880000;43.650391
77517;BME280;68414;53.946;27.634;2023-05-07T04:24:00;100197.171875;;;5.020000;43.696289
77517;BME280;68414;53.946;27.634;2023-05-07T04:25:00;100195.750000;;;5.050000;43.666992
77517;BME280;68414;53.946;27.634;2023-05-07T04:26:00;100193.226562;;;5.130000;44.008789
77517;BME280;68414;53.946;27.634;2023-05-07T04:27:00;100191.937500;;;5.060000;42.836914
77517;BME280;68414;53.946;27.634;2023-05-07T04:28:00;100190.593750;;;5.030000;42.824219
77517;BME280;68414;53.946;27.634;2023-05-07T04:29:00;100194.343750;;;5.120000;42.985352
77517;BME280;68414;53.946;27.634;2023-05-07T04:30:00;100189.203125;;;5.060000;42.384766
77517;BME280;68414;53.946;27.634;2023-05-07T04:31:00;100196.515625;;;5.150000;42.879883
77517;BME280;68414;53.946;27.634;2023-05-07T04:32:00;100191.843750;;;5.160000;43.333008
77517;BME280;68414;53.946;27.634;2023-05-07T04:33:00;100189.765625;;;5.030000;42.695312